مطارات جورجيا

الرئيسية المنتدى المطارات مطارات جورجيا

مشاهدة مشاركاتين - 1 إلى 2 (من مجموع 2)
  • الكاتب
    المشاركات
  • #1613
    عبد الله فهد
    مدير عام

    اهلا وسهلا هذا الثريد راح نحط فيه كل المعلومات المتعلقة للمطارات في جورجيا

    #1614
    عبد الله فهد
    مدير عام

    مطار تبليسي الدولي

    الرحلة كانت من جدة لتبليسي

    OEJN TO UGTB  

    05/05/22

    المطار البديل UBBB

    الروت

    OEJN DATA1N DATAP A424 PMA B544 ASH B411 MURIB B411 LOVEK..SEPTU UM860 NINVA UM860 KONUK UW88 ERN UT166 PIXAP UW88 TBN UN61 NOLGA N61 LAGAS LAGA1A UGTB

    الجو في ذاك اليوم

    TAF UGTB 042300Z 0500/0524 14007KT 9999 BKN055 TX18/0511Z TN14/0502Z TEMPO 0502/0507 SHRA BKN030CB OVC050 BECMG 0509/0511 32028KT SCT050 TEMPO 0509/0516 TSRA SCT010 BKN030CB

    Landing time 0801Z

    الموجات المستخدمة من جدة لتبليسي

    DATAP 124.450

    ORMEK 133.700

    (SOBAS 134.800 (RUH

    (ARR 123.000 (Bhagad

    (RALTI 129.100 (Bhagdad

    (NINVA 127.925 (Ankara 

    (KONUK 129.300(Ankara

    Tbilisi) TBN 125.125)

    APP 134.600

    الستار 

    LAGAS1A Arrival RWY 31L

    بعدين كنسها وعطانا دايركت على نقطة اسمها 

    BAZIK (IAF) ILS Z RWY 31L

    العودة

    تبليسي الرياض 

    UGTB TO OERK

    06/05/22

    ETD 0850Z

    الروت

    UGTB..TBS N61 NOLGA UN61 TBN UW88 ERN UM688 RATVO UM688 SIDAD N302 ALVAX B417 KUA G667 ESRAT ESRA1A OERK

    الجو في ذاك اليوم 

    TAF UGTB 060500Z 0606/0706 32022KT 9999 BKN050CB TX18/0611Z TN08/0702Z TEMPO 0606/0608 TSRA BECMG 0612/0614 32012KT TEMPO 0612/0621 4000 TSRA SCT014 BKN035CB TEMPO 0621/0706 VRB02KT 3000 SHRA BKN012CB OVC025

    الموجات المستخدمة من تبليسي الى الرياض 

    LAGAS 125.125

    NOLGA 129.300 (Ankara) SQ change

    RATVO 129.100 (Baghdad) SQ Change

    (SOBIL 123.000 (Baghdad 

    ULDER 125.300 

    (COPPI 133.250 (Jeddah

    MGA 126.000

مشاهدة مشاركاتين - 1 إلى 2 (من مجموع 2)
  • يجب تسجيل الدخول للرد على هذا الموضوع.